createdAt,value
2022-12-08T00:01:25.037Z,54.78
2022-12-08T00:03:52.876Z,54.76
2022-12-08T00:06:58.933Z,54.96
2022-12-08T00:09:39.776Z,53.40
2022-12-08T00:12:17.891Z,54.08
2022-12-08T00:14:47.190Z,54.65
2022-12-08T00:17:16.440Z,55.66
2022-12-08T00:19:44.284Z,54.62
2022-12-08T00:22:13.316Z,54.51
2022-12-08T00:24:45.515Z,53.96
2022-12-08T00:27:15.386Z,55.23
2022-12-08T00:29:44.681Z,55.56
2022-12-08T00:32:11.481Z,57.17
2022-12-08T00:34:38.174Z,55.87
2022-12-08T00:37:04.956Z,55.54
2022-12-08T00:39:31.749Z,56.60
2022-12-08T00:42:13.641Z,56.91
2022-12-08T00:44:45.120Z,55.81
2022-12-08T00:47:13.782Z,55.29
2022-12-08T00:49:41.075Z,56.50
2022-12-08T00:52:08.434Z,55.59
2022-12-08T00:54:35.470Z,54.62
2022-12-08T00:57:02.299Z,55.47
2022-12-08T00:59:29.050Z,54.56
2022-12-08T01:01:55.875Z,54.13
2022-12-08T01:04:24.047Z,54.51
2022-12-08T01:06:51.532Z,55.42
2022-12-08T01:09:19.150Z,55.11
2022-12-08T01:11:46.642Z,55.04
2022-12-08T01:14:13.647Z,55.85
2022-12-08T01:16:41.628Z,55.89
2022-12-08T01:19:12.201Z,55.42
2022-12-08T01:21:39.935Z,54.62
2022-12-08T01:24:07.271Z,54.47
2022-12-08T01:26:34.084Z,54.67
2022-12-08T01:29:01.844Z,54.94
2022-12-08T01:31:28.654Z,54.75
2022-12-08T01:33:55.478Z,55.44
2022-12-08T01:36:29.209Z,55.15
2022-12-08T01:38:59.138Z,54.82
2022-12-08T01:41:30.950Z,55.25
2022-12-08T01:44:08.374Z,53.90
2022-12-08T01:46:38.293Z,54.82
2022-12-08T01:49:19.644Z,54.19
2022-12-08T01:52:26.738Z,54.61
2022-12-08T01:55:07.051Z,54.62
2022-12-08T01:57:43.036Z,54.85
2022-12-08T02:00:13.442Z,53.93
2022-12-08T02:02:51.971Z,53.57
2022-12-08T02:05:22.098Z,53.50
2022-12-08T02:07:50.168Z,54.53
2022-12-08T02:10:23.223Z,55.56
2022-12-08T02:12:53.862Z,55.23
2022-12-08T02:15:31.836Z,54.82
2022-12-08T02:18:26.700Z,55.37
2022-12-08T02:21:39.484Z,54.91
2022-12-08T02:24:24.992Z,55.36
2022-12-08T02:27:22.505Z,55.95
2022-12-08T02:29:52.002Z,56.39
2022-12-08T02:32:27.271Z,55.13
2022-12-08T02:35:10.772Z,54.40
2022-12-08T02:38:03.265Z,55.39
2022-12-08T02:40:39.649Z,55.71
2022-12-08T02:43:17.491Z,55.19
2022-12-08T02:45:51.110Z,54.08
2022-12-08T02:48:18.005Z,55.27
2022-12-08T02:50:44.635Z,55.30
2022-12-08T02:55:42.966Z,56.69
2022-12-08T02:58:24.019Z,55.86
2022-12-08T03:01:12.381Z,55.82
2022-12-08T03:04:06.087Z,56.23
2022-12-08T03:06:42.025Z,55.95
2022-12-08T03:09:24.676Z,57.64
2022-12-08T03:12:11.309Z,59.90
2022-12-08T03:14:44.441Z,57.82
2022-12-08T03:17:12.877Z,57.07
2022-12-08T03:19:43.229Z,58.09
2022-12-08T03:22:12.256Z,57.54
2022-12-08T03:24:43.240Z,56.58
2022-12-08T03:27:20.519Z,55.93
2022-12-08T03:29:50.821Z,55.15
2022-12-08T03:32:47.607Z,54.59
2022-12-08T03:35:20.294Z,55.16
2022-12-08T03:37:47.171Z,55.50
2022-12-08T03:40:18.795Z,55.98
2022-12-08T03:42:45.509Z,54.63
2022-12-08T03:45:12.357Z,54.34
2022-12-08T03:47:39.106Z,55.55
2022-12-08T03:50:06.830Z,56.47
2022-12-08T03:52:33.621Z,56.28
2022-12-08T03:55:00.347Z,58.69
2022-12-08T03:57:27.011Z,57.89
2022-12-08T03:59:53.716Z,56.19
2022-12-08T04:02:20.480Z,60.38
2022-12-08T04:04:47.282Z,61.79
2022-12-08T04:07:14.319Z,59.39
2022-12-08T04:09:41.662Z,59.39
2022-12-08T04:12:09.172Z,59.71
2022-12-08T04:14:35.942Z,60.23
2022-12-08T04:17:02.704Z,59.45
2022-12-08T04:19:29.441Z,62.57
2022-12-08T04:21:56.174Z,62.95
2022-12-08T04:24:22.833Z,61.06
2022-12-08T04:26:50.557Z,60.81
2022-12-08T04:29:17.285Z,60.21
2022-12-08T04:31:44.406Z,64.15
2022-12-08T04:34:11.086Z,62.58
2022-12-08T04:36:37.911Z,61.30
2022-12-08T04:39:04.606Z,60.43
2022-12-08T04:41:31.309Z,60.33
2022-12-08T04:43:57.985Z,58.86
2022-12-08T04:46:24.678Z,58.52
2022-12-08T04:48:51.331Z,57.78
2022-12-08T04:51:20.685Z,56.58
2022-12-08T04:53:48.043Z,55.92
2022-12-08T04:56:19.319Z,56.82
2022-12-08T04:58:46.731Z,57.62
2022-12-08T05:01:13.668Z,58.77
2022-12-08T05:03:40.545Z,60.06
2022-12-08T05:06:07.414Z,59.20
2022-12-08T05:08:34.218Z,59.88
2022-12-08T05:11:09.466Z,61.07
2022-12-08T05:13:36.341Z,63.55
2022-12-08T05:16:12.654Z,63.70
2022-12-08T05:18:41.235Z,64.72
2022-12-08T05:21:09.118Z,64.88
2022-12-08T05:23:36.511Z,64.53
2022-12-08T05:26:03.462Z,64.07
2022-12-08T05:28:41.273Z,64.23
2022-12-08T05:31:10.399Z,64.17
2022-12-08T05:33:37.093Z,64.36
2022-12-08T05:36:04.004Z,65.13
2022-12-08T05:38:30.799Z,65.56
2022-12-08T05:40:57.710Z,63.61
2022-12-08T05:43:24.491Z,62.60
2022-12-08T05:45:51.301Z,62.36
2022-12-08T05:48:17.999Z,62.20
2022-12-08T05:50:49.033Z,62.72
2022-12-08T05:53:17.614Z,63.84
2022-12-08T05:55:45.156Z,61.79
2022-12-08T05:58:19.172Z,61.66
2022-12-08T06:00:47.014Z,61.44
2022-12-08T06:03:15.680Z,61.71
2022-12-08T06:05:44.372Z,60.27
2022-12-08T06:08:12.095Z,61.34
2022-12-08T06:10:44.963Z,60.43
2022-12-08T06:13:12.875Z,60.62
2022-12-08T06:15:42.867Z,60.39
2022-12-08T06:18:11.209Z,60.85
2022-12-08T06:20:37.832Z,61.82
2022-12-08T06:23:04.469Z,62.23
2022-12-08T06:25:31.182Z,61.65
2022-12-08T06:28:07.366Z,62.64
2022-12-08T06:30:34.351Z,63.14
2022-12-08T06:33:01.085Z,63.11
2022-12-08T06:35:27.815Z,63.32
2022-12-08T06:37:54.516Z,62.32
2022-12-08T06:40:21.196Z,63.65
2022-12-08T06:42:47.886Z,63.58
2022-12-08T06:45:17.800Z,63.57
2022-12-08T06:47:44.869Z,61.95
2022-12-08T06:50:13.318Z,61.35
2022-12-08T06:52:51.707Z,59.88
2022-12-08T06:55:57.506Z,59.42
2022-12-08T06:58:13.651Z,58.71
2022-12-08T07:00:42.038Z,59.77
2022-12-08T07:03:11.423Z,58.13
2022-12-08T07:05:38.869Z,58.55
2022-12-08T07:08:08.357Z,59.31
2022-12-08T07:10:35.393Z,58.70
2022-12-08T07:13:02.206Z,57.71
2022-12-08T07:15:28.999Z,58.65
2022-12-08T07:17:59.895Z,57.45
2022-12-08T07:20:27.812Z,56.94
2022-12-08T07:22:54.948Z,57.72
2022-12-08T07:25:22.188Z,57.99
2022-12-08T07:27:51.238Z,57.84
2022-12-08T07:30:18.046Z,57.77
2022-12-08T07:32:45.304Z,57.06
2022-12-08T07:35:12.006Z,56.35
2022-12-08T07:37:39.129Z,56.14
2022-12-08T07:40:08.577Z,56.19
2022-12-08T07:42:35.521Z,56.73
2022-12-08T07:45:02.447Z,55.75
2022-12-08T07:47:29.251Z,58.26
2022-12-08T07:49:56.052Z,57.47
2022-12-08T07:52:23.380Z,56.93
2022-12-08T07:54:50.052Z,56.64
2022-12-08T07:57:17.044Z,55.59
2022-12-08T07:59:43.733Z,55.95
2022-12-08T08:02:24.857Z,55.81
2022-12-08T08:04:52.797Z,55.95
2022-12-08T08:07:19.533Z,57.10
2022-12-08T08:09:46.340Z,56.56
2022-12-08T08:15:01.623Z,54.40
2022-12-08T08:17:29.721Z,53.82
2022-12-08T08:19:57.219Z,54.54
2022-12-08T08:22:25.704Z,54.81
2022-12-08T08:24:53.556Z,53.89
2022-12-08T08:27:20.728Z,53.45
2022-12-08T08:29:47.582Z,53.07
2022-12-08T08:32:14.282Z,54.83
2022-12-08T08:34:41.051Z,54.07
2022-12-08T08:37:07.793Z,53.17
2022-12-08T08:39:34.576Z,53.26
2022-12-08T08:42:01.267Z,54.14
2022-12-08T08:44:28.103Z,53.29
2022-12-08T08:46:54.825Z,55.61
2022-12-08T08:49:21.557Z,54.72
2022-12-08T08:51:48.332Z,54.16
2022-12-08T08:54:15.448Z,55.43
2022-12-08T08:56:45.176Z,55.44
2022-12-08T08:59:12.074Z,56.25
2022-12-08T09:01:38.758Z,55.92
2022-12-08T09:04:05.581Z,56.27
2022-12-08T09:06:32.685Z,56.48
2022-12-08T09:08:59.505Z,56.28
2022-12-08T09:11:26.195Z,55.94
2022-12-08T09:13:54.615Z,56.31
2022-12-08T09:16:23.006Z,57.98
2022-12-08T09:18:50.178Z,56.73
2022-12-08T09:21:22.689Z,56.68
2022-12-08T09:23:50.892Z,56.83
2022-12-08T09:26:17.680Z,56.46
2022-12-08T09:28:46.538Z,56.34
2022-12-08T09:31:14.587Z,56.14
2022-12-08T09:33:42.059Z,56.86
2022-12-08T09:36:10.058Z,57.03
2022-12-08T09:38:37.879Z,58.04
2022-12-08T09:41:36.536Z,58.27
2022-12-08T09:44:46.272Z,59.89
2022-12-08T09:47:35.693Z,60.55
2022-12-08T09:50:37.037Z,61.73
2022-12-08T09:53:12.545Z,60.99
2022-12-08T09:55:59.000Z,61.19
2022-12-08T09:58:53.610Z,62.06
2022-12-08T10:01:32.428Z,62.68
2022-12-08T10:04:00.290Z,63.01
2022-12-08T10:06:55.579Z,65.47
2022-12-08T10:09:52.762Z,65.51
2022-12-08T10:12:33.971Z,64.33
2022-12-08T10:15:38.204Z,65.05
2022-12-08T10:18:16.961Z,65.11
2022-12-08T10:20:47.478Z,65.79
2022-12-08T10:23:34.224Z,65.74
2022-12-08T10:26:11.205Z,66.04
2022-12-08T10:28:44.418Z,64.11
2022-12-08T10:31:21.806Z,63.02
2022-12-08T10:33:58.706Z,61.17
2022-12-08T10:36:54.351Z,63.72
2022-12-08T10:39:39.824Z,63.14
2022-12-08T10:42:21.809Z,63.73
2022-12-08T10:45:00.666Z,65.85
2022-12-08T10:47:29.783Z,64.63
2022-12-08T10:50:34.642Z,65.33
2022-12-08T10:53:07.620Z,65.45
2022-12-08T10:56:03.614Z,64.55
2022-12-08T10:58:47.264Z,65.31
2022-12-08T11:01:26.597Z,65.72
2022-12-08T11:04:07.455Z,65.16
2022-12-08T11:06:40.084Z,62.44
2022-12-08T11:09:24.547Z,62.08
2022-12-08T11:12:00.380Z,64.22
2022-12-08T11:14:37.513Z,65.41
2022-12-08T11:17:10.444Z,62.70
2022-12-08T11:19:40.609Z,61.12
2022-12-08T11:22:32.265Z,62.44
2022-12-08T11:25:08.273Z,64.58
2022-12-08T11:27:42.047Z,62.93
2022-12-08T11:30:22.317Z,63.50
2022-12-08T11:32:56.024Z,65.20
2022-12-08T11:35:32.507Z,64.73
2022-12-08T11:38:21.185Z,64.48
2022-12-08T11:41:03.335Z,64.52
2022-12-08T11:44:19.014Z,64.42
2022-12-08T11:46:58.443Z,66.02
2022-12-08T11:49:42.129Z,65.05
2022-12-08T11:52:33.970Z,65.60
2022-12-08T11:55:25.465Z,64.57
2022-12-08T11:57:54.900Z,63.35
2022-12-08T12:00:21.671Z,63.11
2022-12-08T12:03:04.508Z,61.02
2022-12-08T12:06:53.763Z,57.64
2022-12-08T12:09:36.401Z,56.73
2022-12-08T12:12:44.100Z,60.24
2022-12-08T12:16:07.842Z,57.40
2022-12-08T12:18:56.442Z,55.66
2022-12-08T12:21:40.328Z,58.92
2022-12-08T12:24:26.032Z,56.79
2022-12-08T12:27:06.763Z,59.77
2022-12-08T12:29:38.172Z,61.73
2022-12-08T12:32:09.108Z,61.49
2022-12-08T12:34:46.285Z,62.43
2022-12-08T12:37:25.611Z,64.15
2022-12-08T12:39:52.118Z,64.95
2022-12-08T12:42:37.090Z,67.18
2022-12-08T12:45:19.904Z,69.44
2022-12-08T12:47:56.229Z,71.31
2022-12-08T12:50:36.976Z,70.21
2022-12-08T12:53:18.059Z,67.63
2022-12-08T12:55:58.452Z,68.25
2022-12-08T12:58:28.340Z,69.02
2022-12-08T13:01:37.652Z,69.67
2022-12-08T13:04:10.769Z,70.30
2022-12-08T13:06:43.320Z,67.95
2022-12-08T13:09:30.620Z,67.30
2022-12-08T13:12:08.489Z,68.62
2022-12-08T13:14:46.204Z,68.08
2022-12-08T13:17:20.958Z,68.93
2022-12-08T13:19:52.014Z,66.46
2022-12-08T13:22:54.170Z,66.25
2022-12-08T13:25:39.299Z,65.45
2022-12-08T13:28:20.850Z,63.78
2022-12-08T13:30:48.896Z,62.10
2022-12-08T13:33:32.650Z,61.85
2022-12-08T13:36:32.785Z,64.28
2022-12-08T13:39:01.295Z,65.06
2022-12-08T13:41:49.382Z,65.71
2022-12-08T13:47:33.868Z,66.27
2022-12-08T13:54:35.281Z,67.03
2022-12-08T13:59:34.392Z,64.18
2022-12-08T14:02:43.740Z,66.59
2022-12-08T14:05:23.598Z,66.79
2022-12-08T14:07:56.888Z,67.70
2022-12-08T14:10:30.297Z,67.99
2022-12-08T14:13:11.080Z,68.54
2022-12-08T14:15:40.019Z,69.26
2022-12-08T14:18:26.105Z,69.53
2022-12-08T14:21:20.933Z,69.84
2022-12-08T14:23:48.009Z,69.32
2022-12-08T14:26:14.777Z,67.56
2022-12-08T14:28:45.069Z,67.10
2022-12-08T14:31:14.758Z,66.46
2022-12-08T14:33:42.425Z,66.00
2022-12-08T14:36:10.256Z,64.91
2022-12-08T14:38:37.018Z,64.08
2022-12-08T14:41:11.519Z,65.11
2022-12-08T14:43:41.068Z,63.77
2022-12-08T14:46:22.969Z,64.69
2022-12-08T14:48:49.920Z,62.41
2022-12-08T14:51:24.209Z,61.88
2022-12-08T14:54:05.443Z,62.86
2022-12-08T14:56:50.268Z,64.74
2022-12-08T14:59:32.722Z,66.43
2022-12-08T15:02:24.373Z,66.95
2022-12-08T15:05:20.260Z,65.01
2022-12-08T15:08:00.165Z,65.64
2022-12-08T15:10:30.895Z,64.07
2022-12-08T15:13:22.313Z,64.74
2022-12-08T15:15:57.923Z,65.52
2022-12-08T15:19:00.569Z,65.05
2022-12-08T15:21:32.750Z,62.93
2022-12-08T15:23:59.419Z,62.35
2022-12-08T15:26:28.180Z,61.26
2022-12-08T15:28:55.745Z,59.54
2022-12-08T15:31:22.575Z,57.32
2022-12-08T15:33:49.372Z,57.83
2022-12-08T15:36:16.061Z,58.14
2022-12-08T15:38:43.552Z,57.92
2022-12-08T15:41:15.000Z,59.27
2022-12-08T15:43:42.397Z,62.28
2022-12-08T15:46:09.299Z,63.78
2022-12-08T15:48:37.688Z,63.29
2022-12-08T15:51:04.393Z,63.96
2022-12-08T15:53:31.104Z,64.67
2022-12-08T15:56:28.521Z,65.50
2022-12-08T15:58:54.691Z,66.02
2022-12-08T16:01:22.025Z,66.51
2022-12-08T16:09:36.520Z,64.99
2022-12-08T16:12:22.417Z,66.77
2022-12-08T16:17:37.057Z,66.59
2022-12-08T16:20:18.226Z,67.81
2022-12-08T16:23:19.339Z,67.11
2022-12-08T16:25:52.749Z,68.28
2022-12-08T16:28:52.189Z,68.99
2022-12-08T16:31:10.286Z,67.59
2022-12-08T16:33:40.557Z,67.53
2022-12-08T16:36:07.463Z,67.92
2022-12-08T16:38:36.052Z,65.93
2022-12-08T16:41:21.454Z,66.33
2022-12-08T16:43:49.067Z,66.70
2022-12-08T16:46:23.842Z,65.55
2022-12-08T16:48:50.709Z,65.69
2022-12-08T16:51:25.078Z,64.53
2022-12-08T16:53:56.792Z,64.43
2022-12-08T16:56:30.432Z,65.64
2022-12-08T16:58:59.031Z,65.48
2022-12-08T17:01:25.937Z,65.75
2022-12-08T17:04:22.459Z,67.26
2022-12-08T17:06:40.175Z,68.49
2022-12-08T17:09:06.928Z,69.52
2022-12-08T17:11:39.041Z,71.05
2022-12-08T17:14:06.099Z,71.25
2022-12-08T17:16:32.875Z,71.03
2022-12-08T17:18:59.615Z,69.34
2022-12-08T17:21:26.285Z,66.81
2022-12-08T17:23:52.990Z,66.03
2022-12-08T17:26:19.661Z,66.79
2022-12-08T17:29:01.938Z,67.40
2022-12-08T17:31:31.436Z,67.12
2022-12-08T17:34:10.999Z,65.67
2022-12-08T17:36:37.693Z,65.95
2022-12-08T17:39:05.518Z,65.84
2022-12-08T17:41:32.955Z,66.66
2022-12-08T17:43:59.596Z,66.38
2022-12-08T17:46:26.683Z,66.87
2022-12-08T17:48:53.568Z,67.46
2022-12-08T17:51:20.614Z,67.47
2022-12-08T17:53:47.323Z,65.87
2022-12-08T17:56:18.959Z,65.61
2022-12-08T17:58:51.081Z,62.83
2022-12-08T18:01:21.657Z,61.95
2022-12-08T18:03:48.497Z,61.19
2022-12-08T18:06:17.363Z,62.49
2022-12-08T18:08:44.232Z,63.68
2022-12-08T18:11:15.144Z,64.29
2022-12-08T18:13:41.977Z,62.75
2022-12-08T18:16:08.734Z,62.63
2022-12-08T18:18:35.512Z,61.57
2022-12-08T18:21:02.145Z,62.84
2022-12-08T18:23:28.962Z,63.78
2022-12-08T18:25:55.635Z,65.22
2022-12-08T18:28:23.672Z,64.73
2022-12-08T18:30:50.599Z,64.32
2022-12-08T18:33:17.419Z,62.96
2022-12-08T18:35:44.079Z,64.04
2022-12-08T18:38:10.812Z,64.54
2022-12-08T18:40:37.610Z,64.22
2022-12-08T18:43:04.406Z,62.91
2022-12-08T18:45:31.557Z,63.17
2022-12-08T18:47:58.267Z,60.47
2022-12-08T18:50:24.919Z,60.19
2022-12-08T18:52:51.697Z,59.93
2022-12-08T18:55:18.477Z,61.08
2022-12-08T18:57:46.250Z,60.84
2022-12-08T19:00:21.072Z,59.26
2022-12-08T19:02:47.866Z,60.32
2022-12-08T19:05:14.973Z,59.23
2022-12-08T19:07:42.836Z,59.72
2022-12-08T19:10:10.789Z,59.31
2022-12-08T19:12:37.853Z,56.83
2022-12-08T19:15:05.632Z,55.38
2022-12-08T19:17:32.787Z,53.81
2022-12-08T19:19:59.609Z,52.93
2022-12-08T19:22:27.104Z,52.67
2022-12-08T19:24:53.990Z,51.95
2022-12-08T19:27:20.854Z,52.34
2022-12-08T19:29:47.561Z,53.18
2022-12-08T19:32:14.386Z,53.66
2022-12-08T19:34:41.365Z,53.01
2022-12-08T19:37:10.283Z,53.40
2022-12-08T19:39:55.481Z,52.36
2022-12-08T19:42:40.788Z,52.00
2022-12-08T19:45:16.322Z,51.47
2022-12-08T19:47:44.180Z,51.36
2022-12-08T19:50:49.331Z,52.13
2022-12-08T19:53:16.165Z,56.88
2022-12-08T19:55:43.972Z,57.43
2022-12-08T19:58:11.299Z,57.91
2022-12-08T20:00:39.517Z,58.92
2022-12-08T20:03:06.836Z,56.67
2022-12-08T20:05:36.212Z,54.40
2022-12-08T20:08:03.347Z,53.15
2022-12-08T20:10:35.588Z,54.31
2022-12-08T20:13:21.379Z,53.67
2022-12-08T20:15:48.515Z,52.43
2022-12-08T20:18:16.076Z,52.14
2022-12-08T20:20:44.517Z,51.75
2022-12-08T20:23:11.743Z,51.44
2022-12-08T20:25:43.289Z,51.14
2022-12-08T20:28:10.196Z,51.37
2022-12-08T20:30:39.543Z,51.26
2022-12-08T20:33:06.395Z,52.37
2022-12-08T20:35:33.866Z,54.79
2022-12-08T20:38:00.626Z,55.67
2022-12-08T20:40:27.448Z,56.94
2022-12-08T20:42:54.295Z,56.61
2022-12-08T20:45:21.047Z,54.69
2022-12-08T20:47:47.798Z,53.44
2022-12-08T20:50:14.700Z,52.91
2022-12-08T20:52:41.789Z,52.36
2022-12-08T20:55:09.678Z,52.16
2022-12-08T20:57:36.698Z,51.87
2022-12-08T21:00:06.061Z,53.11
2022-12-08T21:02:33.256Z,52.57
2022-12-08T21:05:00.365Z,52.06
2022-12-08T21:07:27.503Z,51.92
2022-12-08T21:09:54.767Z,51.70
2022-12-08T21:12:21.599Z,52.65
2022-12-08T21:14:48.342Z,52.05
2022-12-08T21:17:15.505Z,51.52
2022-12-08T21:19:42.431Z,51.83
2022-12-08T21:22:09.280Z,51.55
2022-12-08T21:24:36.055Z,51.29
2022-12-08T21:27:02.926Z,51.43
2022-12-08T21:29:29.627Z,51.99
2022-12-08T21:31:58.784Z,51.78
2022-12-08T21:34:31.771Z,51.61
2022-12-08T21:36:58.774Z,51.31
2022-12-08T21:39:25.859Z,51.37
2022-12-08T21:42:12.081Z,51.47
2022-12-08T21:44:38.976Z,51.66
2022-12-08T21:47:06.054Z,51.57
2022-12-08T21:49:33.109Z,51.55
2022-12-08T21:52:00.300Z,51.08
2022-12-08T21:54:27.450Z,51.22
2022-12-08T21:56:54.412Z,52.56
2022-12-08T21:59:21.280Z,53.17
2022-12-08T22:01:48.477Z,53.29
2022-12-08T22:04:21.317Z,54.07
2022-12-08T22:06:48.777Z,53.07
2022-12-08T22:09:15.861Z,52.30
2022-12-08T22:11:43.192Z,51.89
2022-12-08T22:14:14.365Z,51.76
2022-12-08T22:16:43.054Z,51.41
2022-12-08T22:19:10.197Z,51.19
2022-12-08T22:21:38.248Z,53.03
2022-12-08T22:24:05.830Z,53.26
2022-12-08T22:26:33.079Z,52.96
2022-12-08T22:29:00.465Z,54.38
2022-12-08T22:31:27.891Z,54.39
2022-12-08T22:33:54.937Z,53.09
2022-12-08T22:36:26.929Z,52.22
2022-12-08T22:38:54.469Z,51.86
2022-12-08T22:41:22.265Z,51.59
2022-12-08T22:43:50.265Z,51.06
2022-12-08T22:46:22.724Z,51.07
2022-12-08T22:48:50.720Z,50.83
2022-12-08T22:51:18.223Z,50.85
2022-12-08T22:53:46.645Z,51.13
2022-12-08T22:56:15.536Z,50.82
2022-12-08T22:58:43.464Z,51.01
2022-12-08T23:01:24.596Z,51.87
2022-12-08T23:03:51.438Z,53.11
2022-12-08T23:06:18.555Z,53.16
2022-12-08T23:08:45.993Z,53.85
2022-12-08T23:11:12.940Z,53.55
2022-12-08T23:13:40.283Z,53.95
2022-12-08T23:16:09.183Z,54.66
2022-12-08T23:18:37.889Z,53.85
2022-12-08T23:21:11.579Z,52.72
2022-12-08T23:23:38.909Z,52.34
2022-12-08T23:26:22.008Z,52.16
2022-12-08T23:28:49.224Z,51.90
2022-12-08T23:31:16.861Z,51.92
2022-12-08T23:33:43.789Z,51.69
2022-12-08T23:36:11.858Z,51.35
2022-12-08T23:38:38.977Z,50.83
2022-12-08T23:41:08.211Z,51.01
2022-12-08T23:43:35.610Z,50.96
2022-12-08T23:46:03.590Z,50.98
2022-12-08T23:48:34.979Z,51.42
2022-12-08T23:51:02.054Z,51.56
2022-12-08T23:53:30.489Z,51.34
2022-12-08T23:56:07.132Z,51.75
2022-12-08T23:58:35.546Z,51.39
